Time;durP1;ratioP1;P1;durP2;ratioP2;P2;SDS_P1;SDS_P2;PMS_P1;PMS_P2;Temp;Humidity;BMP_temperature;BMP_pressure;BME280_temperature;BME280_humidity;BME280_pressure;Samples;Min_cycle;Max_cycle;Signal;HPM_P1;HPM_P2
2022/02/19 00:00:11;;;;;;;30.00;22.20;;;26.00;99.90;;;;;;4188974;28;20043;-66
2022/02/19 00:02:18;;;;;;;35.95;28.25;;;26.10;99.90;;;;;;4207314;28;20036;-66
2022/02/19 00:04:22;;;;;;;35.55;27.80;;;26.00;99.90;;;;;;4192861;28;20047;-66
2022/02/19 00:06:26;;;;;;;28.17;23.08;;;26.10;99.90;;;;;;4194858;28;20051;-67
2022/02/19 00:08:33;;;;;;;26.00;20.80;;;26.10;99.90;;;;;;4195322;28;20063;-67
2022/02/19 00:10:38;;;;;;;26.42;20.13;;;26.10;99.90;;;;;;4210426;28;20051;-67
2022/02/19 00:12:42;;;;;;;24.75;19.45;;;26.10;99.90;;;;;;4197047;28;20486;-67
2022/02/19 00:14:49;;;;;;;25.45;19.52;;;26.10;99.90;;;;;;4196914;28;20060;-66
2022/02/19 00:16:54;;;;;;;21.65;19.38;;;26.10;99.90;;;;;;4196873;28;20464;-67
2022/02/19 00:18:58;;;;;;;23.85;18.40;;;26.10;99.90;;;;;;4198043;28;20040;-67
2022/02/19 00:21:06;;;;;;;23.42;19.08;;;26.10;99.90;;;;;;4199015;28;20047;-68
2022/02/19 00:23:11;;;;;;;29.40;19.73;;;26.10;99.90;;;;;;4192792;28;20503;-67
2022/02/19 00:25:15;;;;;;;23.85;19.00;;;26.20;99.90;;;;;;4196802;28;20045;-67
2022/02/19 00:27:24;;;;;;;29.17;19.35;;;26.20;99.90;;;;;;4199373;28;20510;-67
2022/02/19 00:29:29;;;;;;;26.48;20.58;;;26.10;99.90;;;;;;4198918;28;20037;-68
2022/02/19 00:31:33;;;;;;;27.45;20.13;;;26.10;99.90;;;;;;4197510;28;20110;-67
2022/02/19 00:33:39;;;;;;;25.95;20.38;;;26.20;99.90;;;;;;4197197;28;20044;-67
2022/02/19 00:35:50;;;;;;;30.98;26.20;;;26.20;99.90;;;;;;4213388;28;20062;-68
2022/02/19 00:37:54;;;;;;;34.08;28.45;;;26.20;99.90;;;;;;4195380;28;20098;-68
2022/02/19 00:40:01;;;;;;;31.58;26.73;;;26.20;99.90;;;;;;4197002;28;20036;-66
2022/02/19 00:42:06;;;;;;;29.25;23.35;;;26.30;99.90;;;;;;4197325;28;20048;-66
2022/02/19 00:44:11;;;;;;;24.63;20.35;;;26.30;99.90;;;;;;4196651;28;20151;-67
2022/02/19 00:46:20;;;;;;;22.92;19.08;;;26.30;99.90;;;;;;4194933;28;20051;-67
2022/02/19 00:48:24;;;;;;;22.55;19.83;;;26.40;99.90;;;;;;4197150;28;20106;-67
2022/02/19 00:50:49;;;;;;;26.33;20.95;;;26.40;99.90;;;;;;4197425;28;20091;-68
2022/02/19 00:52:59;;;;;;;26.70;19.17;;;26.40;99.90;;;;;;4211617;28;20044;-68
2022/02/19 00:55:04;;;;;;;24.70;19.65;;;26.40;99.90;;;;;;4195476;28;20127;-67
2022/02/19 00:57:09;;;;;;;24.00;18.27;;;26.40;99.90;;;;;;4195155;28;20494;-67
2022/02/19 00:59:17;;;;;;;21.95;16.30;;;26.50;99.90;;;;;;4194137;28;20367;-68
2022/02/19 01:01:23;;;;;;;23.77;17.48;;;26.60;99.90;;;;;;4212336;28;20559;-67
2022/02/19 01:03:39;;;;;;;25.80;18.15;;;26.70;99.90;;;;;;4195923;28;20132;-69
2022/02/19 01:05:45;;;;;;;23.25;16.77;;;26.80;99.90;;;;;;4196788;28;20238;-67
2022/02/19 01:07:50;;;;;;;18.42;13.93;;;26.90;99.90;;;;;;4197165;28;20098;-68
2022/02/19 01:09:54;;;;;;;18.40;13.70;;;26.90;99.90;;;;;;4193446;28;20056;-67
2022/02/19 01:12:04;;;;;;;15.75;12.35;;;27.00;99.90;;;;;;4209363;28;20552;-68
2022/02/19 01:14:08;;;;;;;12.25;9.63;;;27.10;99.90;;;;;;4208873;28;20040;-68
2022/02/19 01:16:13;;;;;;;12.15;9.32;;;27.00;99.90;;;;;;4191495;28;20052;-67
2022/02/19 01:18:29;;;;;;;14.52;9.13;;;27.10;99.90;;;;;;4209592;28;20070;-68
2022/02/19 01:20:53;;;;;;;11.85;8.18;;;27.20;99.90;;;;;;4191536;28;20079;-66
2022/02/19 01:22:58;;;;;;;12.48;8.43;;;27.20;99.90;;;;;;4190810;28;20403;-68
2022/02/19 01:25:11;;;;;;;9.57;7.82;;;27.20;99.90;;;;;;4191767;28;20615;-67
2022/02/19 01:27:32;;;;;;;9.40;7.68;;;27.20;99.90;;;;;;4192809;28;20092;-69
2022/02/19 01:29:44;;;;;;;;;;;27.20;99.90;;;;;;4195444;28;20044;-69
2022/02/19 01:32:00;;;;;;;10.20;8.43;;;27.20;99.90;;;;;;4193733;28;19924;-67
2022/02/19 01:34:15;;;;;;;13.88;8.68;;;27.20;99.90;;;;;;4191715;28;20716;-69
2022/02/19 01:36:20;;;;;;;11.30;8.40;;;27.20;99.90;;;;;;4178987;28;20086;-69
2022/02/19 01:38:29;;;;;;;13.30;8.88;;;27.20;99.90;;;;;;4195937;28;20040;-69
2022/02/19 01:40:35;;;;;;;11.25;7.70;;;27.20;99.90;;;;;;4195239;28;20051;-68
2022/02/19 01:42:39;;;;;;;10.43;6.78;;;27.20;99.90;;;;;;4195632;28;20094;-67
2022/02/19 01:44:52;;;;;;;12.25;6.32;;;27.20;99.90;;;;;;4190117;28;20495;-68
2022/02/19 01:46:58;;;;;;;8.10;5.80;;;27.30;99.90;;;;;;4195948;28;20053;-68
2022/02/19 01:49:04;;;;;;;10.13;5.45;;;27.30;99.90;;;;;;4194146;28;20141;-69
2022/02/19 01:51:11;;;;;;;22.95;6.93;;;27.40;99.90;;;;;;4193323;28;20064;-68
2022/02/19 01:53:20;;;;;;;61.50;9.63;;;27.50;99.90;;;;;;4196300;28;20052;-68
2022/02/19 01:55:31;;;;;;;49.28;8.30;;;27.50;99.90;;;;;;4194706;28;20045;-68
2022/02/19 01:57:52;;;;;;;16.13;6.10;;;27.60;99.90;;;;;;4196118;28;20108;-67
2022/02/19 02:00:16;;;;;;;10.15;5.38;;;27.60;99.90;;;;;;4195479;28;20075;-67
2022/02/19 02:02:33;;;;;;;12.40;5.50;;;27.60;99.90;;;;;;4192815;28;20127;-68
2022/02/19 02:05:01;;;;;;;8.23;5.45;;;27.70;99.90;;;;;;4193955;28;20505;-67
2022/02/19 02:07:09;;;;;;;7.07;5.18;;;27.80;99.90;;;;;;4192928;28;20040;-67
2022/02/19 02:09:18;;;;;;;7.68;5.00;;;27.70;99.90;;;;;;4192748;28;20049;-67
2022/02/19 02:11:27;;;;;;;7.75;4.90;;;27.80;99.90;;;;;;4195037;28;20167;-67
2022/02/19 02:13:34;;;;;;;31.58;21.83;;;28.00;99.90;;;;;;4210991;28;20040;-67
2022/02/19 02:15:39;;;;;;;18.70;13.77;;;28.00;99.90;;;;;;4189837;28;20044;-66
2022/02/19 02:17:58;;;;;;;18.77;13.13;;;28.10;99.90;;;;;;4187841;28;20060;-66
2022/02/19 02:20:03;;;;;;;10.65;6.45;;;28.10;99.90;;;;;;4189914;28;20041;-67
2022/02/19 02:22:15;;;;;;;13.68;5.38;;;28.10;99.90;;;;;;4179302;28;20836;-67
2022/02/19 02:24:23;;;;;;;5.97;4.25;;;28.20;99.90;;;;;;4176081;28;20422;-67
2022/02/19 02:26:29;;;;;;;8.85;4.25;;;28.20;99.90;;;;;;4184590;28;20052;-68
2022/02/19 02:28:34;;;;;;;13.38;5.32;;;28.30;99.90;;;;;;4194178;28;20033;-67
2022/02/19 02:30:43;;;;;;;10.07;5.28;;;28.40;99.90;;;;;;4188094;28;20131;-67
2022/02/19 02:32:51;;;;;;;7.28;3.83;;;28.40;99.90;;;;;;4209384;28;20130;-67
2022/02/19 02:34:55;;;;;;;6.38;3.92;;;28.50;99.90;;;;;;4184537;28;20494;-67
2022/02/19 02:37:11;;;;;;;9.05;3.65;;;28.50;99.90;;;;;;4210368;28;20423;-67
2022/02/19 02:39:16;;;;;;;10.50;4.10;;;28.50;99.90;;;;;;4183060;28;20061;-67
2022/02/19 02:41:21;;;;;;;6.50;3.78;;;28.50;99.90;;;;;;4170568;28;20119;-70
2022/02/19 02:43:31;;;;;;;8.25;3.72;;;28.50;99.90;;;;;;4193777;28;20124;-68
2022/02/19 02:45:37;;;;;;;10.10;4.22;;;28.50;99.90;;;;;;4187134;28;20133;-68
2022/02/19 02:48:00;;;;;;;8.88;4.03;;;28.40;99.90;;;;;;4191953;28;20044;-68
2022/02/19 02:50:11;;;;;;;12.48;8.77;;;28.50;99.90;;;;;;4196033;28;20044;-68
2022/02/19 02:52:16;;;;;;;40.17;27.63;;;28.50;99.90;;;;;;4189812;28;20127;-69
2022/02/19 02:54:20;;;;;;;15.50;8.13;;;28.60;99.90;;;;;;4189548;28;20043;-68
2022/02/19 02:56:29;;;;;;;8.85;4.78;;;28.50;99.90;;;;;;4210953;28;20122;-68
2022/02/19 02:58:33;;;;;;;8.88;4.20;;;28.50;99.90;;;;;;4191518;28;20041;-68
2022/02/19 03:00:42;;;;;;;5.70;3.42;;;28.70;99.90;;;;;;4189344;28;20064;-68
2022/02/19 03:02:47;;;;;;;5.82;3.75;;;28.80;99.90;;;;;;4189907;28;20132;-67
2022/02/19 03:04:51;;;;;;;13.40;4.93;;;28.70;99.90;;;;;;4195104;28;20127;-68
2022/02/19 03:06:55;;;;;;;6.97;3.58;;;28.80;99.90;;;;;;4194733;28;20049;-69
2022/02/19 03:09:04;;;;;;;10.73;4.13;;;28.80;99.90;;;;;;4173645;28;20080;-68
2022/02/19 03:11:08;;;;;;;9.93;4.38;;;28.80;99.90;;;;;;4181086;28;20047;-68
2022/02/19 03:13:16;;;;;;;11.73;4.63;;;28.90;99.90;;;;;;4208741;28;20114;-67
2022/02/19 03:15:21;;;;;;;6.93;4.22;;;28.90;99.90;;;;;;4174962;28;20852;-68
2022/02/19 03:17:26;;;;;;;5.95;3.90;;;29.00;99.90;;;;;;4194944;28;20103;-67
2022/02/19 03:19:30;;;;;;;5.97;4.13;;;29.10;99.90;;;;;;4209967;28;20039;-68
2022/02/19 03:21:38;;;;;;;7.07;4.20;;;29.10;99.90;;;;;;4193252;28;20131;-67
2022/02/19 03:23:43;;;;;;;7.82;4.22;;;29.20;99.90;;;;;;4195147;28;20069;-63
2022/02/19 03:25:49;;;;;;;6.18;4.00;;;29.20;99.90;;;;;;4207994;28;20054;-68
2022/02/19 03:27:58;;;;;;;5.47;3.90;;;29.20;99.90;;;;;;4186137;28;20162;-67
2022/02/19 03:30:07;;;;;;;6.57;4.18;;;29.30;99.90;;;;;;4186424;28;20056;-66
2022/02/19 03:32:13;;;;;;;6.18;4.10;;;29.40;99.90;;;;;;4190494;28;20048;-69
2022/02/19 03:34:20;;;;;;;8.02;4.50;;;29.40;99.90;;;;;;4194552;28;20679;-68
2022/02/19 03:36:24;;;;;;;6.97;4.63;;;29.40;99.90;;;;;;4192827;28;20048;-67
2022/02/19 03:38:29;;;;;;;11.05;4.35;;;29.50;99.90;;;;;;4175981;28;20713;-67
2022/02/19 03:40:42;;;;;;;;;;;29.50;99.90;;;;;;4196721;28;20048;-66
2022/02/19 03:42:47;;;;;;;5.20;3.75;;;29.60;99.90;;;;;;4198445;28;20503;-67
2022/02/19 03:44:52;;;;;;;10.90;3.95;;;29.70;99.90;;;;;;4195251;28;20090;-67
2022/02/19 03:47:00;;;;;;;7.07;3.95;;;29.70;99.90;;;;;;4198198;28;20097;-67
2022/02/19 03:49:17;;;;;;;7.72;4.03;;;29.70;99.90;;;;;;4199011;28;20052;-69
2022/02/19 03:51:22;;;;;;;6.07;4.30;;;29.80;99.90;;;;;;4193251;28;20054;-67
2022/02/19 03:53:29;;;;;;;8.00;3.95;;;29.90;99.90;;;;;;4187584;28;20091;-68
2022/02/19 03:55:36;;;;;;;7.63;4.20;;;30.10;99.90;;;;;;4198699;28;20040;-69
2022/02/19 03:57:40;;;;;;;7.07;4.13;;;30.10;99.90;;;;;;4197777;28;20128;-69
2022/02/19 03:59:49;;;;;;;7.60;4.85;;;30.10;99.90;;;;;;4193679;28;20047;-69
2022/02/19 04:01:53;;;;;;;6.25;4.57;;;30.10;99.90;;;;;;4198398;28;20079;-67
2022/02/19 04:03:59;;;;;;;5.57;4.18;;;30.10;99.90;;;;;;4197546;28;20078;-68
2022/02/19 04:06:08;;;;;;;8.30;4.65;;;30.00;99.90;;;;;;4193136;28;20138;-67
2022/02/19 04:08:13;;;;;;;8.55;4.13;;;30.00;99.90;;;;;;4195951;28;20056;-67
2022/02/19 04:10:18;;;;;;;6.93;4.13;;;30.10;99.90;;;;;;4180953;28;20049;-68
2022/02/19 04:12:27;;;;;;;6.07;4.18;;;30.10;99.90;;;;;;4197465;28;20087;-68
2022/02/19 04:14:33;;;;;;;8.23;4.70;;;30.00;99.90;;;;;;4197159;28;20150;-67
2022/02/19 04:16:40;;;;;;;7.65;4.15;;;29.90;99.90;;;;;;4193501;28;20044;-67
2022/02/19 04:18:48;;;;;;;6.63;4.47;;;29.80;99.90;;;;;;4180979;28;20495;-68
2022/02/19 04:20:55;;;;;;;7.80;4.30;;;29.70;99.90;;;;;;4198786;28;20036;-67
2022/02/19 04:23:00;;;;;;;5.55;3.88;;;29.90;99.90;;;;;;4199050;28;20127;-68
2022/02/19 04:25:10;;;;;;;9.77;4.60;;;29.90;99.90;;;;;;4197296;28;20049;-68
2022/02/19 04:27:15;;;;;;;7.82;4.00;;;30.00;99.90;;;;;;4211901;28;20543;-67
2022/02/19 04:29:20;;;;;;;7.80;4.10;;;30.10;99.90;;;;;;4197395;28;20059;-68
2022/02/19 04:31:31;;;;;;;7.53;3.88;;;30.10;99.80;;;;;;4196786;28;20158;-68
2022/02/19 04:33:42;;;;;;;6.57;4.35;;;30.00;99.90;;;;;;4197419;28;20048;-68
2022/02/19 04:35:47;;;;;;;7.18;4.30;;;29.90;99.90;;;;;;4195791;28;20052;-68
2022/02/19 04:37:56;;;;;;;8.18;4.20;;;30.00;99.90;;;;;;4196613;28;20067;-68
2022/02/19 04:40:05;;;;;;;6.93;4.18;;;30.00;99.90;;;;;;4193420;28;20127;-68
2022/02/19 04:42:13;;;;;;;6.10;3.88;;;30.10;99.90;;;;;;4197014;28;20048;-67
2022/02/19 04:44:22;;;;;;;6.38;3.92;;;30.10;99.90;;;;;;4197313;28;20171;-69
2022/02/19 04:46:29;;;;;;;6.45;3.65;;;30.10;99.90;;;;;;4195968;28;20458;-68
2022/02/19 04:48:35;;;;;;;8.13;4.38;;;30.30;99.90;;;;;;4196935;28;20041;-68
2022/02/19 04:50:41;;;;;;;7.25;3.75;;;30.40;99.40;;;;;;4198100;28;20056;-68
2022/02/19 04:52:51;;;;;;;4.93;3.60;;;30.50;99.50;;;;;;4196670;28;20066;-69
2022/02/19 04:54:55;;;;;;;11.40;3.92;;;30.50;99.60;;;;;;4197398;28;20044;-68
2022/02/19 04:57:04;;;;;;;8.30;3.80;;;30.50;99.30;;;;;;4197234;28;20052;-68
2022/02/19 04:59:10;;;;;;;8.52;3.70;;;30.50;99.10;;;;;;4196878;28;20048;-69
2022/02/19 05:01:19;;;;;;;5.20;3.05;;;30.40;99.00;;;;;;4196195;28;20039;-69
2022/02/19 05:03:42;;;;;;;7.10;3.17;;;30.30;99.30;;;;;;4196408;28;20036;-68
2022/02/19 05:05:58;;;;;;;5.65;2.90;;;30.20;99.90;;;;;;4196424;28;20074;-68
2022/02/19 05:08:02;;;;;;;3.90;2.65;;;30.00;99.90;;;;;;4192667;28;20055;-68
2022/02/19 05:10:13;;;;;;;4.32;2.22;;;29.90;99.90;;;;;;4210751;28;20056;-68
2022/02/19 05:12:18;;;;;;;6.38;2.50;;;29.80;99.90;;;;;;4195820;28;20049;-68
2022/02/19 05:14:24;;;;;;;2.65;2.20;;;29.80;99.90;;;;;;4176927;28;20044;-68
2022/02/19 05:16:34;;;;;;;4.68;2.50;;;29.90;99.90;;;;;;4191055;28;21598;-67
2022/02/19 05:18:43;;;;;;;6.20;2.72;;;30.00;99.90;;;;;;4191462;28;20487;-69
2022/02/19 05:20:49;;;;;;;7.90;2.92;;;30.00;99.90;;;;;;4205816;28;20127;-69
2022/02/19 05:22:57;;;;;;;4.97;2.55;;;30.00;99.90;;;;;;4193113;28;20057;-70
2022/02/19 05:25:07;;;;;;;4.07;2.77;;;30.00;99.90;;;;;;4196584;28;20045;-69
2022/02/19 05:27:11;;;;;;;6.10;3.35;;;30.10;99.90;;;;;;4195105;28;20305;-69
2022/02/19 05:29:20;;;;;;;4.80;2.63;;;30.30;99.90;;;;;;4193876;28;20043;-68
2022/02/19 05:31:25;;;;;;;4.70;2.38;;;30.40;99.90;;;;;;4170669;28;20041;-69
2022/02/19 05:33:49;;;;;;;4.15;3.05;;;30.50;99.90;;;;;;4190574;28;20052;-69
2022/02/19 05:36:02;;;;;;;5.90;2.92;;;30.60;99.90;;;;;;4196627;28;20068;-70
2022/02/19 05:38:09;;;;;;;5.82;3.13;;;30.60;99.90;;;;;;4195812;28;20075;-70
2022/02/19 05:40:15;;;;;;;7.28;3.42;;;30.80;99.90;;;;;;4196043;28;20106;-70
2022/02/19 05:42:25;;;;;;;6.47;3.38;;;30.90;99.60;;;;;;4196027;28;20048;-70
2022/02/19 05:44:49;;;;;;;9.15;3.35;;;30.80;99.90;;;;;;4193216;28;20040;-69
2022/02/19 05:46:54;;;;;;;3.80;2.90;;;30.80;99.20;;;;;;4195172;28;20056;-68
2022/02/19 05:49:05;;;;;;;3.58;3.10;;;30.80;98.50;;;;;;4193892;28;20104;-69
2022/02/19 05:51:29;;;;;;;4.82;3.55;;;30.70;99.00;;;;;;4197084;28;20050;-68
2022/02/19 05:53:39;;;;;;;7.95;3.55;;;30.80;99.30;;;;;;4176146;28;20046;-68
2022/02/19 05:55:49;;;;;;;8.60;3.50;;;30.80;99.20;;;;;;4196070;28;20504;-71
2022/02/19 05:57:54;;;;;;;4.75;3.22;;;30.90;98.70;;;;;;4210926;28;20044;-69
2022/02/19 05:59:59;;;;;;;5.63;3.20;;;31.10;98.50;;;;;;4193353;28;20458;-69
2022/02/19 06:02:10;;;;;;;4.88;3.40;;;31.20;98.20;;;;;;4196706;28;20040;-70
2022/02/19 06:04:15;;;;;;;6.00;3.80;;;31.30;98.10;;;;;;4193463;28;20048;-68
2022/02/19 06:06:19;;;;;;;5.55;3.42;;;31.30;98.30;;;;;;4186543;28;20380;-69
2022/02/19 06:08:26;;;;;;;4.97;2.90;;;31.40;97.50;;;;;;4191313;28;20055;-71
2022/02/19 06:10:31;;;;;;;7.05;2.75;;;31.40;97.20;;;;;;4196494;28;20063;-70
2022/02/19 06:12:36;;;;;;;4.60;2.75;;;31.50;96.80;;;;;;4194657;28;20627;-70
2022/02/19 06:14:58;;;;;;;4.50;2.80;;;31.60;96.10;;;;;;4208959;28;20115;-70
2022/02/19 06:17:17;;;;;;;4.82;2.42;;;31.60;96.20;;;;;;4180066;28;20149;-69
2022/02/19 06:19:23;;;;;;;6.82;3.15;;;31.70;95.40;;;;;;4194270;28;20048;-68
2022/02/19 06:21:36;;;;;;;4.07;2.77;;;31.90;95.30;;;;;;4194647;28;20058;-71
2022/02/19 06:23:41;;;;;;;3.40;2.65;;;31.90;95.30;;;;;;4193914;28;20371;-69
2022/02/19 06:25:45;;;;;;;8.90;2.65;;;31.90;95.20;;;;;;4194099;28;20047;-70
2022/02/19 06:27:54;;;;;;;2.95;2.13;;;32.00;94.50;;;;;;4193592;28;20094;-70
2022/02/19 06:30:02;;;;;;;2.70;2.00;;;32.10;94.20;;;;;;4192372;28;20045;-71
2022/02/19 06:32:17;;;;;;;3.00;2.17;;;32.10;94.10;;;;;;4191107;28;20043;-69
2022/02/19 06:34:25;;;;;;;5.82;2.35;;;32.20;93.60;;;;;;4189098;28;20037;-69
2022/02/19 06:36:30;;;;;;;3.33;1.70;;;32.20;93.40;;;;;;4193607;28;20078;-70
2022/02/19 06:38:39;;;;;;;3.80;2.22;;;32.20;92.70;;;;;;4191964;28;20048;-70
2022/02/19 06:40:48;;;;;;;3.95;2.10;;;32.20;92.70;;;;;;4192616;28;20045;-68
2022/02/19 06:42:54;;;;;;;5.65;2.47;;;32.20;93.10;;;;;;4192960;28;20048;-69
2022/02/19 06:45:01;;;;;;;2.65;2.10;;;32.20;93.10;;;;;;4193034;28;20379;-68
2022/02/19 06:47:10;;;;;;;3.97;2.00;;;32.20;93.00;;;;;;4192366;28;20044;-69
2022/02/19 06:49:15;;;;;;;4.93;2.33;;;32.30;93.10;;;;;;4193542;28;20116;-69
2022/02/19 06:51:25;;;;;;;4.03;2.40;;;32.30;93.30;;;;;;4175368;28;20067;-69
2022/02/19 06:53:33;;;;;;;5.25;2.63;;;32.40;92.50;;;;;;4190955;28;20036;-68
2022/02/19 06:55:38;;;;;;;3.05;2.22;;;32.50;92.80;;;;;;4175499;28;20067;-69
2022/02/19 06:57:49;;;;;;;4.40;2.53;;;32.60;92.50;;;;;;4190534;28;20044;-69
2022/02/19 07:00:05;;;;;;;3.72;2.30;;;32.60;93.50;;;;;;4192839;28;20076;-70
2022/02/19 07:02:14;;;;;;;5.13;2.40;;;32.60;92.90;;;;;;4178260;28;20099;-68
2022/02/19 07:04:20;;;;;;;3.97;2.40;;;32.50;93.20;;;;;;4192992;28;20049;-70
2022/02/19 07:06:30;;;;;;;4.00;2.22;;;32.40;93.60;;;;;;4193768;28;20036;-68
2022/02/19 07:08:34;;;;;;;3.63;2.20;;;32.40;93.20;;;;;;4189138;28;20068;-67
2022/02/19 07:10:39;;;;;;;5.78;2.90;;;32.30;93.50;;;;;;4188202;28;20636;-67
2022/02/19 07:12:49;;;;;;;5.07;2.72;;;32.50;93.50;;;;;;4192956;28;20043;-68
2022/02/19 07:14:53;;;;;;;3.90;2.85;;;32.50;93.80;;;;;;4189359;28;20071;-68
2022/02/19 07:17:18;;;;;;;4.00;2.80;;;32.60;94.00;;;;;;4194824;28;20127;-68
2022/02/19 07:19:36;;;;;;;6.20;3.00;;;32.60;93.50;;;;;;4192247;28;20040;-69
2022/02/19 07:21:47;;;;;;;4.38;2.33;;;32.80;93.50;;;;;;4193372;28;20040;-69
2022/02/19 07:23:56;;;;;;;4.75;2.42;;;32.80;93.30;;;;;;4193477;28;20067;-68
2022/02/19 07:26:10;;;;;;;4.72;3.05;;;32.80;93.40;;;;;;4192948;28;20092;-69
2022/02/19 07:28:17;;;;;;;3.70;2.53;;;32.80;93.20;;;;;;4191681;28;20422;-69
2022/02/19 07:30:22;;;;;;;4.30;2.78;;;32.80;93.10;;;;;;4190560;28;20040;-70
2022/02/19 07:32:31;;;;;;;3.53;2.50;;;32.80;93.00;;;;;;4193056;28;20669;-70
2022/02/19 07:34:39;;;;;;;4.57;2.90;;;32.80;92.70;;;;;;4193055;28;20075;-69
2022/02/19 07:36:44;;;;;;;3.97;2.72;;;32.60;92.80;;;;;;4204600;28;20044;-70
2022/02/19 07:38:54;;;;;;;4.78;2.70;;;32.60;92.90;;;;;;4192276;28;20044;-69
2022/02/19 07:41:00;;;;;;;4.80;2.60;;;32.60;92.80;;;;;;4190071;28;20087;-69
2022/02/19 07:43:21;;;;;;;5.18;2.63;;;32.50;92.80;;;;;;4192691;28;20045;-68
2022/02/19 07:45:42;;;;;;;4.00;2.47;;;32.40;92.50;;;;;;4189874;28;20052;-67
2022/02/19 07:47:59;;;;;;;3.80;2.80;;;32.30;92.70;;;;;;4193769;28;20048;-70
2022/02/19 08:00:15;;;;;;;7.72;3.15;;;32.30;93.10;;;;;;4189487;28;20048;-69
2022/02/19 08:02:26;;;;;;;;;;;32.30;93.20;;;;;;4192852;28;20514;-68
2022/02/19 08:04:34;;;;;;;7.43;3.05;;;32.40;93.50;;;;;;4179671;28;19920;-68
2022/02/19 08:06:41;;;;;;;4.78;2.85;;;32.50;93.50;;;;;;4191522;28;20048;-68
2022/02/19 08:08:46;;;;;;;5.55;3.15;;;32.50;93.50;;;;;;4191866;28;20029;-68
2022/02/19 08:11:02;;;;;;;5.10;2.90;;;32.60;93.10;;;;;;4192866;28;20048;-70
2022/02/19 08:13:08;;;;;;;5.63;2.60;;;32.60;93.10;;;;;;4190772;28;20050;-69
2022/02/19 08:15:14;;;;;;;5.20;2.58;;;32.60;93.20;;;;;;4191933;28;20048;-68
2022/02/19 08:17:20;;;;;;;5.65;2.30;;;32.70;92.90;;;;;;4208023;28;20087;-69
2022/02/19 08:19:25;;;;;;;5.15;2.75;;;32.70;92.70;;;;;;4193665;28;20048;-69
2022/02/19 08:21:29;;;;;;;6.25;2.88;;;32.80;92.20;;;;;;4191429;28;20044;-68
2022/02/19 08:23:37;;;;;;;4.93;2.85;;;32.80;92.10;;;;;;4189844;28;20071;-69
2022/02/19 08:25:44;;;;;;;5.63;2.90;;;32.80;92.00;;;;;;4193966;28;20398;-69
2022/02/19 08:27:48;;;;;;;4.40;2.55;;;32.70;92.10;;;;;;4193387;28;20051;-69
2022/02/19 08:29:55;;;;;;;5.75;2.80;;;32.80;92.00;;;;;;4196389;28;20052;-69
2022/02/19 08:31:59;;;;;;;5.32;2.72;;;32.70;91.90;;;;;;4193272;28;20052;-69
2022/02/19 08:34:04;;;;;;;5.15;2.90;;;32.60;91.80;;;;;;4186220;28;20045;-69
2022/02/19 08:36:11;;;;;;;6.90;2.97;;;32.60;92.10;;;;;;4189868;28;20123;-69
2022/02/19 08:38:18;;;;;;;4.50;2.88;;;32.50;92.10;;;;;;4193305;28;20060;-71
2022/02/19 08:40:22;;;;;;;4.75;2.80;;;32.40;92.00;;;;;;4195539;28;20043;-68
2022/02/19 08:42:29;;;;;;;5.03;3.15;;;32.40;91.90;;;;;;4194357;28;20044;-68
2022/02/19 08:44:36;;;;;;;5.13;3.00;;;32.40;92.10;;;;;;4198048;28;20036;-71
2022/02/19 08:46:40;;;;;;;4.55;2.78;;;32.30;92.50;;;;;;4195673;28;20081;-69
2022/02/19 08:48:45;;;;;;;4.55;3.03;;;32.30;92.70;;;;;;4194991;28;20082;-70
2022/02/19 08:50:51;;;;;;;4.88;2.95;;;32.40;92.40;;;;;;4197957;28;20076;-70
2022/02/19 08:52:56;;;;;;;5.65;3.10;;;32.40;92.30;;;;;;4195844;28;20059;-70
2022/02/19 08:55:03;;;;;;;3.90;3.15;;;32.40;91.70;;;;;;4196777;28;20095;-69
2022/02/19 08:57:10;;;;;;;5.78;2.90;;;32.40;91.80;;;;;;4194790;28;20044;-70
2022/02/19 08:59:14;;;;;;;4.82;2.90;;;32.40;91.70;;;;;;4197256;28;20372;-69
2022/02/19 09:01:27;;;;;;;6.68;3.22;;;32.30;91.90;;;;;;4195029;28;20040;-69
2022/02/19 09:03:35;;;;;;;4.80;3.30;;;32.30;91.80;;;;;;4193321;28;20037;-68
2022/02/19 09:05:40;;;;;;;5.72;3.03;;;32.30;92.00;;;;;;4197839;28;20082;-68
2022/02/19 09:07:47;;;;;;;4.00;3.03;;;32.30;91.90;;;;;;4193393;28;20588;-69
2022/02/19 09:09:53;;;;;;;4.53;2.85;;;32.40;91.90;;;;;;4194928;28;20060;-69
2022/02/19 09:11:58;;;;;;;6.63;3.05;;;32.40;91.50;;;;;;4195600;28;20094;-69
2022/02/19 09:14:05;;;;;;;4.85;2.85;;;32.50;91.40;;;;;;4196913;28;20531;-69
2022/02/19 09:16:11;;;;;;;4.40;2.50;;;32.50;91.20;;;;;;4194660;28;20141;-69
2022/02/19 09:18:16;;;;;;;5.70;2.80;;;32.50;90.90;;;;;;4193389;28;20053;-69
2022/02/19 09:20:23;;;;;;;7.63;2.60;;;32.50;91.10;;;;;;4196919;28;20056;-70
2022/02/19 09:22:29;;;;;;;4.20;2.55;;;32.40;90.70;;;;;;4194623;28;20041;-69
2022/02/19 09:24:34;;;;;;;3.60;2.28;;;32.30;90.90;;;;;;4197364;28;20052;-70
2022/02/19 09:26:41;;;;;;;5.32;3.20;;;32.30;90.90;;;;;;4197261;28;20063;-69
2022/02/19 09:28:48;;;;;;;4.65;2.70;;;32.30;91.10;;;;;;4191943;28;20040;-70
2022/02/19 09:30:56;;;;;;;6.45;2.95;;;32.20;91.20;;;;;;4193059;28;20052;-70
2022/02/19 09:33:03;;;;;;;4.97;2.90;;;32.30;91.20;;;;;;4193742;28;20057;-69
2022/02/19 09:35:12;;;;;;;4.75;2.75;;;32.30;90.70;;;;;;4193528;28;20768;-69
2022/02/19 09:37:16;;;;;;;5.43;2.72;;;32.30;90.40;;;;;;4192792;28;20644;-69
2022/02/19 09:39:22;;;;;;;7.70;2.83;;;32.20;90.20;;;;;;4191848;28;20072;-69
2022/02/19 09:41:28;;;;;;;5.10;3.25;;;32.20;90.20;;;;;;4195374;28;20470;-69
2022/02/19 09:43:33;;;;;;;6.25;2.85;;;32.10;90.50;;;;;;4194032;28;20495;-69
2022/02/19 09:45:39;;;;;;;6.25;3.13;;;32.10;90.70;;;;;;4196052;28;20419;-69
2022/02/19 09:47:46;;;;;;;6.82;3.50;;;32.00;90.30;;;;;;4192622;28;20522;-69
2022/02/19 09:49:51;;;;;;;7.10;2.80;;;31.90;90.50;;;;;;4194837;28;20048;-69
2022/02/19 09:51:59;;;;;;;4.63;2.80;;;31.90;90.80;;;;;;4193834;28;20048;-69
2022/02/19 09:54:05;;;;;;;4.90;2.90;;;31.80;90.90;;;;;;4194050;28;20052;-69
2022/02/19 09:56:10;;;;;;;5.28;3.03;;;31.90;91.10;;;;;;4195748;28;20551;-69
2022/02/19 09:58:14;;;;;;;5.10;3.05;;;31.80;91.00;;;;;;4188038;28;20498;-69
2022/02/19 10:00:36;;;;;;;6.10;3.30;;;31.80;91.10;;;;;;4194759;28;20061;-69
2022/02/19 10:02:42;;;;;;;7.50;3.05;;;31.80;91.00;;;;;;4193962;28;20048;-69
2022/02/19 10:04:49;;;;;;;4.82;2.97;;;31.80;91.30;;;;;;4190424;28;20048;-69
2022/02/19 10:06:59;;;;;;;5.60;3.30;;;31.80;91.30;;;;;;4193744;28;20518;-69
2022/02/19 10:09:17;;;;;;;5.45;3.53;;;31.70;91.20;;;;;;4193557;28;20486;-69
2022/02/19 10:11:23;;;;;;;6.03;3.53;;;31.70;91.70;;;;;;4191218;28;20056;-69
2022/02/19 10:13:38;;;;;;;3.72;3.05;;;31.70;91.50;;;;;;4190392;28;20075;-68
2022/02/19 10:15:50;;;;;;;6.18;3.40;;;31.60;91.30;;;;;;4194605;28;20178;-69
2022/02/19 10:17:57;;;;;;;8.50;3.55;;;31.50;91.30;;;;;;4188751;28;20075;-69
2022/02/19 10:20:07;;;;;;;6.28;3.60;;;31.50;91.60;;;;;;4194398;28;20430;-69
2022/02/19 10:22:12;;;;;;;4.85;3.38;;;31.50;91.50;;;;;;4191888;28;20064;-69
2022/02/19 10:24:18;;;;;;;4.85;3.30;;;31.40;91.50;;;;;;4194676;28;20418;-68
2022/02/19 10:26:27;;;;;;;5.82;3.25;;;31.40;91.70;;;;;;4195256;28;20051;-68
2022/02/19 10:28:32;;;;;;;7.85;3.92;;;31.40;91.60;;;;;;4190631;28;20099;-69
2022/02/19 10:30:39;;;;;;;9.10;3.60;;;31.40;91.60;;;;;;4207762;28;20055;-69
2022/02/19 10:33:01;;;;;;;4.90;3.60;;;31.40;91.50;;;;;;4190784;28;20080;-69
2022/02/19 10:35:06;;;;;;;6.15;3.78;;;31.40;91.60;;;;;;4194680;28;20040;-69
2022/02/19 10:37:10;;;;;;;4.15;3.75;;;31.30;91.60;;;;;;4192300;28;20489;-68
2022/02/19 10:39:27;;;;;;;6.57;4.18;;;31.30;91.60;;;;;;4194762;28;20052;-68
2022/02/19 10:41:35;;;;;;;9.38;4.43;;;31.30;91.50;;;;;;4189227;28;20051;-68
2022/02/19 10:43:43;;;;;;;11.15;5.03;;;31.30;91.50;;;;;;4185290;28;20579;-68
2022/02/19 10:46:04;;;;;;;9.38;5.70;;;31.30;91.70;;;;;;4191232;28;20053;-69
2022/02/19 10:48:28;;;;;;;9.55;4.78;;;31.30;91.50;;;;;;4188149;28;20054;-69
2022/02/19 10:50:35;;;;;;;7.88;4.57;;;31.20;91.50;;;;;;4192136;28;20052;-69
2022/02/19 10:52:54;;;;;;;8.02;4.40;;;31.20;91.70;;;;;;4191715;28;20557;-69
2022/02/19 10:55:07;;;;;;;7.30;4.45;;;31.20;91.60;;;;;;4192252;28;20116;-68
2022/02/19 10:57:13;;;;;;;8.43;4.90;;;31.20;91.70;;;;;;4189790;28;20549;-68
2022/02/19 10:59:20;;;;;;;8.55;4.82;;;31.20;91.80;;;;;;4194364;28;20040;-68
2022/02/19 11:01:24;;;;;;;8.27;4.70;;;31.20;91.80;;;;;;4190189;28;20040;-68
2022/02/19 11:03:33;;;;;;;6.95;4.72;;;31.20;91.80;;;;;;4192868;28;20040;-69
2022/02/19 11:05:40;;;;;;;6.32;4.75;;;31.20;91.90;;;;;;4194554;28;20045;-69
2022/02/19 11:07:45;;;;;;;8.65;4.78;;;31.20;91.70;;;;;;4193444;28;20076;-69
2022/02/19 11:09:52;;;;;;;9.05;5.22;;;31.10;91.60;;;;;;4193452;28;20090;-69
2022/02/19 11:11:59;;;;;;;8.13;4.93;;;31.10;91.70;;;;;;4193266;28;20059;-68
2022/02/19 11:14:04;;;;;;;7.18;4.15;;;31.10;91.70;;;;;;4193904;28;20049;-68